createdAt,value
2022-08-22T00:00:00.085Z,5.1
2022-08-22T00:05:00.107Z,7.1
2022-08-22T00:10:00.100Z,7.1
2022-08-22T00:15:00.092Z,6.6
2022-08-22T00:20:00.133Z,6.6
2022-08-22T00:25:00.102Z,8
2022-08-22T00:30:00.125Z,8
2022-08-22T00:35:00.091Z,6
2022-08-22T00:40:03.120Z,6
2022-08-22T00:45:00.110Z,7.6
2022-08-22T00:50:00.164Z,7.6
2022-08-22T00:55:00.115Z,7
2022-08-22T01:00:00.107Z,7
2022-08-22T01:05:00.110Z,6.9
2022-08-22T01:10:00.124Z,6.9
2022-08-22T01:15:00.115Z,8.7
2022-08-22T01:20:00.124Z,8.7
2022-08-22T01:25:00.105Z,6.5
2022-08-22T01:30:00.096Z,6.5
2022-08-22T01:35:00.283Z,5.5
2022-08-22T01:40:00.417Z,5.5
2022-08-22T01:45:00.104Z,6.9
2022-08-22T01:50:00.142Z,6.9
2022-08-22T01:55:00.095Z,7.3
2022-08-22T02:00:00.149Z,7.3
2022-08-22T02:05:00.094Z,8.6
2022-08-22T02:10:00.139Z,8.6
2022-08-22T02:15:00.107Z,7.7
2022-08-22T02:20:00.116Z,7.7
2022-08-22T02:25:00.099Z,8.5
2022-08-22T02:30:00.135Z,8.5
2022-08-22T02:35:00.104Z,6.3
2022-08-22T02:40:00.236Z,6.3
2022-08-22T02:45:00.094Z,8.4
2022-08-22T02:50:00.138Z,8.4
2022-08-22T02:55:00.093Z,9.6
2022-08-22T03:00:00.141Z,9.6
2022-08-22T03:05:00.101Z,10.3
2022-08-22T03:10:00.123Z,10.3
2022-08-22T03:15:00.113Z,7.4
2022-08-22T03:20:00.125Z,7.4
2022-08-22T03:25:00.100Z,9
2022-08-22T03:30:00.120Z,9
2022-08-22T03:35:00.096Z,8.2
2022-08-22T03:40:00.321Z,8.2
2022-08-22T03:45:00.117Z,9.4
2022-08-22T03:50:00.142Z,9.4
2022-08-22T03:55:00.116Z,10.7
2022-08-22T04:00:00.131Z,10.7
2022-08-22T04:05:00.106Z,9.9
2022-08-22T04:10:00.133Z,9.9
2022-08-22T04:15:00.106Z,10.4
2022-08-22T04:20:00.130Z,10.4
2022-08-22T04:25:01.865Z,10.6
2022-08-22T04:30:00.136Z,10.6
2022-08-22T04:35:00.135Z,9.5
2022-08-22T04:40:00.243Z,9.5
2022-08-22T04:45:00.116Z,10.4
2022-08-22T04:50:00.110Z,10.4
2022-08-22T04:55:00.106Z,10.8
2022-08-22T05:00:00.119Z,10.8
2022-08-22T05:05:00.104Z,9.8
2022-08-22T05:10:00.129Z,9.8
2022-08-22T05:15:00.130Z,9.2
2022-08-22T05:20:00.104Z,9.2
2022-08-22T05:25:00.107Z,9.1
2022-08-22T05:30:00.129Z,9.1
2022-08-22T05:35:00.127Z,12.9
2022-08-22T05:40:00.210Z,12.9
2022-08-22T05:45:00.118Z,11.7
2022-08-22T05:50:00.114Z,11.7
2022-08-22T05:55:00.094Z,8.5
2022-08-22T06:00:00.137Z,8.5
2022-08-22T06:05:00.099Z,9.3
2022-08-22T06:10:00.126Z,9.3
2022-08-22T06:15:00.097Z,9.3
2022-08-22T06:20:00.132Z,9.3
2022-08-22T06:25:00.108Z,10.1
2022-08-22T06:30:00.138Z,10.1
2022-08-22T06:35:00.118Z,9.2
2022-08-22T06:40:00.245Z,9.2
2022-08-22T06:45:00.115Z,11.1
2022-08-22T06:50:00.107Z,11.1
2022-08-22T06:55:00.104Z,8.6
2022-08-22T07:00:00.133Z,8.6
2022-08-22T07:05:00.099Z,9.2
2022-08-22T07:10:00.130Z,9.2
2022-08-22T07:15:00.099Z,11
2022-08-22T07:20:00.093Z,11
2022-08-22T07:25:00.112Z,8.6
2022-08-22T07:30:00.096Z,8.6
2022-08-22T07:35:00.083Z,9.9
2022-08-22T07:40:00.196Z,9.9
2022-08-22T07:45:00.096Z,9.2
2022-08-22T07:50:00.116Z,9.2
2022-08-22T07:55:00.094Z,8.8
2022-08-22T08:00:00.148Z,8.8
2022-08-22T08:05:00.094Z,7.5
2022-08-22T08:10:00.099Z,7.5
2022-08-22T08:15:00.085Z,8.4
2022-08-22T08:20:00.098Z,8.4
2022-08-22T08:25:00.088Z,7.8
2022-08-22T08:30:00.106Z,7.8
2022-08-22T08:35:00.095Z,12.9
2022-08-22T08:40:00.199Z,12.9
2022-08-22T08:45:00.093Z,9.9
2022-08-22T08:50:00.104Z,9.9
2022-08-22T08:55:00.080Z,6
2022-08-22T09:00:00.112Z,6
2022-08-22T09:05:00.107Z,8.3
2022-08-22T09:10:00.115Z,8.3
2022-08-22T09:15:00.114Z,9.3
2022-08-22T09:20:00.112Z,9.3
2022-08-22T09:25:00.095Z,8.3
2022-08-22T09:30:00.139Z,8.3
2022-08-22T09:35:00.103Z,6.9
2022-08-22T09:40:00.206Z,6.9
2022-08-22T09:45:00.107Z,7.2
2022-08-22T09:50:00.118Z,7.2
2022-08-22T09:55:00.106Z,6.4
2022-08-22T10:00:00.139Z,6.4
2022-08-22T10:05:00.106Z,6.7
2022-08-22T10:10:00.115Z,6.7
2022-08-22T10:15:00.108Z,8.7
2022-08-22T10:20:00.097Z,8.7
2022-08-22T10:25:00.105Z,4
2022-08-22T10:30:00.152Z,4
2022-08-22T10:35:00.127Z,5.5
2022-08-22T10:40:00.231Z,5.5
2022-08-22T10:45:00.104Z,7
2022-08-22T10:50:00.117Z,7
2022-08-22T10:55:00.112Z,6.6
2022-08-22T11:00:00.142Z,6.6
2022-08-22T11:05:00.094Z,5.1
2022-08-22T11:10:00.108Z,5.1
2022-08-22T11:15:00.098Z,6
2022-08-22T11:20:00.126Z,6
2022-08-22T11:25:03.684Z,6.5
2022-08-22T11:30:00.142Z,6.5
2022-08-22T11:35:00.101Z,7.8
2022-08-22T11:40:00.230Z,7.8
2022-08-22T11:45:00.105Z,7.4
2022-08-22T11:50:00.120Z,7.4
2022-08-22T11:55:00.101Z,7.1
2022-08-22T12:00:00.115Z,7.1
2022-08-22T12:05:00.095Z,5.7
2022-08-22T12:10:00.119Z,5.7
2022-08-22T12:15:00.109Z,4.9
2022-08-22T12:20:15.320Z,4.9
2022-08-22T12:25:02.859Z,6.2
2022-08-22T12:30:00.104Z,6.2
2022-08-22T12:35:00.100Z,5.1
2022-08-22T12:40:00.229Z,5.1
2022-08-22T12:45:00.097Z,5.7
2022-08-22T12:50:00.103Z,5.7
2022-08-22T12:55:00.115Z,5.6
2022-08-22T13:00:00.098Z,5.6
2022-08-22T13:05:00.103Z,4.2
2022-08-22T13:10:00.139Z,4.2
2022-08-22T13:15:00.115Z,4.5
2022-08-22T13:20:00.098Z,4.5
2022-08-22T13:25:00.144Z,5.1
2022-08-22T13:30:00.126Z,5.1
2022-08-22T13:35:00.108Z,8.6
2022-08-22T13:40:00.196Z,8.6
2022-08-22T13:45:00.126Z,4.5
2022-08-22T13:50:00.121Z,4.5
2022-08-22T13:55:00.105Z,5.4
2022-08-22T14:00:06.086Z,5.4
2022-08-22T14:05:00.095Z,4.9
2022-08-22T14:10:00.135Z,4.9
2022-08-22T14:15:00.132Z,4.3
2022-08-22T14:20:01.350Z,4.3
2022-08-22T14:25:00.104Z,4.9
2022-08-22T14:30:00.127Z,4.9
2022-08-22T14:35:00.106Z,4.9
2022-08-22T14:40:00.173Z,4.2
2022-08-22T14:45:00.122Z,4.2
2022-08-22T14:50:00.108Z,3.8
2022-08-22T14:55:00.801Z,3.8
2022-08-22T15:00:00.143Z,5.2
2022-08-22T15:05:00.096Z,5.2
2022-08-22T15:10:00.965Z,4.3
2022-08-22T15:15:03.176Z,4.3
2022-08-22T15:20:00.109Z,6.3
2022-08-22T15:25:00.105Z,6.3
2022-08-22T15:30:00.105Z,3.6
2022-08-22T15:35:00.109Z,3.6
2022-08-22T15:40:00.206Z,4.1
2022-08-22T15:45:00.089Z,4.1
2022-08-22T15:50:00.120Z,5.8
2022-08-22T15:55:00.095Z,5.8
2022-08-22T16:00:00.103Z,3.9
2022-08-22T16:05:00.086Z,3.9
2022-08-22T16:10:00.109Z,6.5
2022-08-22T16:15:00.076Z,6.5
2022-08-22T16:20:00.176Z,5.2
2022-08-22T16:25:00.084Z,5.2
2022-08-22T16:30:00.136Z,4.2
2022-08-22T16:35:00.102Z,4.2
2022-08-22T16:40:00.211Z,5.4
2022-08-22T16:45:00.101Z,5.4
2022-08-22T16:50:00.168Z,5.2
2022-08-22T16:55:00.117Z,5.2
2022-08-22T17:00:00.124Z,7.1
2022-08-22T17:05:00.128Z,7.1
2022-08-22T17:10:00.106Z,4.5
2022-08-22T17:15:00.099Z,4.5
2022-08-22T17:20:00.105Z,4.3
2022-08-22T17:25:00.096Z,4.3
2022-08-22T17:30:00.114Z,6.8
2022-08-22T17:35:00.103Z,6.8
2022-08-22T17:40:00.326Z,4.1
2022-08-22T17:45:00.098Z,4.1
2022-08-22T17:50:00.122Z,4.8
2022-08-22T17:55:00.108Z,4.8
2022-08-22T18:00:00.118Z,4.6
2022-08-22T18:05:00.101Z,4.6
2022-08-22T18:10:00.101Z,3
2022-08-22T18:15:00.098Z,3
2022-08-22T18:20:00.106Z,3.9
2022-08-22T18:25:00.087Z,3.9
2022-08-22T18:30:00.082Z,4.9
2022-08-22T18:35:00.096Z,4.9
2022-08-22T18:40:00.162Z,3.8
2022-08-22T18:45:00.100Z,3.8
2022-08-22T18:50:00.154Z,5.7
2022-08-22T18:55:00.094Z,5.7
2022-08-22T19:00:00.093Z,4.3
2022-08-22T19:05:00.089Z,4.3
2022-08-22T19:10:00.130Z,6.2
2022-08-22T19:15:00.109Z,6.2
2022-08-22T19:20:00.106Z,4.9
2022-08-22T19:25:00.114Z,4.9
2022-08-22T19:30:00.116Z,7
2022-08-22T19:35:02.003Z,7
2022-08-22T19:40:00.240Z,6.9
2022-08-22T19:45:00.153Z,6.9
2022-08-22T19:50:00.107Z,6.4
2022-08-22T19:55:00.087Z,6.4
2022-08-22T20:00:00.134Z,7.7
2022-08-22T20:05:00.099Z,7.7
2022-08-22T20:10:00.131Z,4.3
2022-08-22T20:15:00.098Z,4.3
2022-08-22T20:25:00.093Z,6.3
2022-08-22T20:30:00.126Z,7.6
2022-08-22T20:35:00.109Z,7.6
2022-08-22T20:40:00.257Z,6.1
2022-08-22T20:45:00.115Z,6.1
2022-08-22T20:50:00.104Z,4.8
2022-08-22T20:55:00.094Z,4.8
2022-08-22T21:00:00.098Z,5.5
2022-08-22T21:05:00.132Z,5.5
2022-08-22T21:10:00.144Z,7
2022-08-22T21:15:00.097Z,7
2022-08-22T21:20:00.117Z,8.4
2022-08-22T21:25:00.106Z,8.4
2022-08-22T21:30:00.102Z,6.5
2022-08-22T21:35:00.097Z,6.5
2022-08-22T21:40:00.173Z,4.9
2022-08-22T21:45:00.112Z,4.9
2022-08-22T21:50:00.138Z,5.9
2022-08-22T21:55:00.095Z,5.9
2022-08-22T22:00:00.292Z,5.1
2022-08-22T22:05:00.081Z,5.1
2022-08-22T22:10:00.094Z,5.9
2022-08-22T22:15:00.083Z,5.9
2022-08-22T22:20:00.107Z,5
2022-08-22T22:25:00.103Z,5
2022-08-22T22:30:00.111Z,4.8
2022-08-22T22:35:00.083Z,4.8
2022-08-22T22:40:00.175Z,5.9
2022-08-22T22:45:00.314Z,5.9
2022-08-22T22:50:00.108Z,5.7
2022-08-22T22:55:00.099Z,5.7
2022-08-22T23:00:00.086Z,6.4
2022-08-22T23:05:00.099Z,6.4
2022-08-22T23:10:00.087Z,7.7
2022-08-22T23:15:00.087Z,7.7
2022-08-22T23:20:00.089Z,6.8
2022-08-22T23:25:00.095Z,6.8
2022-08-22T23:30:00.152Z,5.8
2022-08-22T23:35:00.097Z,5.8
2022-08-22T23:40:00.212Z,5.6
2022-08-22T23:45:00.106Z,5.6
2022-08-22T23:50:02.947Z,6
2022-08-22T23:55:00.111Z,6
